Bretagne — FNBR — position and weather

sailwx.info

Track history (hours):
 
Tides and Currents Weather Stations Pressure Air Temp Water Temp Dewpoint Dewpoint Depression Visibility Wind Speed Wind Dir Waves Ship Positions

Bretagne

Operator: Brittany Ferries

Last reported at 2017-Sep-21 22:16 UTC. Time now 2017-Sep-23 02:21 UTC.
Position N 50°17' W 001°28'.

Length 151 m; beam 27 m.

Type: Ship. MMSI: 227286000.

Date/timePositionNaut miles runAvg speedWind from/ knotsBaromVisibWave heightAir tempDewpointWater temp
2017-Sep-21 22:16N 50°17' W 001°28'514.5
2017-Sep-21 21:55N 50°21' W 001°23'614.3
2017-Sep-21 21:30N 50°26' W 001°19'713.8
2017-Sep-21 21:00N 50°32' W 001°13'713.2
2017-Sep-21 20:31N 50°37' W 001°07'612.2
2017-Sep-21 20:00N 50°43' W 001°03'612.7
2017-Sep-21 19:30N 50°48' W 001°07'1 1.6
2017-Sep-21 19:00N 50°49' W 001°06'0 0.0
2017-Sep-21 18:30N 50°49' W 001°06'0 0.0
2017-Sep-21 18:00N 50°49' W 001°06'0 0.0
2017-Sep-21 17:31N 50°49' W 001°06'1 1.4
2017-Sep-21 17:00N 50°48' W 001°06'4 9.2
2017-Sep-21 16:30N 50°44' W 001°03'612.6
2017-Sep-21 16:00N 50°38' W 001°00'915.6
2017-Sep-21 15:26N 50°31' W 001°09'1016.5
2017-Sep-21 14:49N 50°23' W 001°19'10812.3
2017-Sep-21 06:00N 48°39' W 002°02'814.5
2017-Sep-21 05:29N 48°45' W 002°08'1120.5
2017-Sep-21 04:56N 48°53' W 002°20'717.3
2017-Sep-21 04:30N 49°01' W 002°22'713.9
2017-Sep-21 04:00N 49°08' W 002°23'813.2
2017-Sep-21 03:22N 49°16' W 002°22'411.9
2017-Sep-21 02:59N 49°20' W 002°19'2512.6
2017-Sep-21 01:00N 49°43' W 002°03'612.6
2017-Sep-21 00:30N 49°49' W 002°00'611.5
2017-Sep-21 00:00N 49°54' W 001°57'714.7
2017-Sep-20 23:30N 50°01' W 001°52'714.4
2017-Sep-20 23:00N 50°06' W 001°45'714.5
2017-Sep-20 22:30N 50°12' W 001°38'1514.6
2017-Sep-20 21:29N 50°24' W 001°25'713.6
2017-Sep-20 21:00N 50°29' W 001°18'612.5
2017-Sep-20 20:31N 50°33' W 001°11'612.6
2017-Sep-20 20:00N 50°39' W 001°05'611.2
2017-Sep-20 19:30N 50°44' W 001°04'5 8.9
2017-Sep-20 19:00N 50°49' W 001°06'0 0.1
2017-Sep-20 18:30N 50°49' W 001°06'0 0.0
2017-Sep-20 18:00N 50°49' W 001°06'0 0.0
2017-Sep-20 17:30N 50°49' W 001°06'0 0.0
2017-Sep-20 17:00N 50°49' W 001°06'0 0.0
2017-Sep-20 16:30N 50°49' W 001°06'0 0.0
2017-Sep-20 16:00N 50°49' W 001°06'0 0.0
2017-Sep-20 15:30N 50°49' W 001°06'0 0.0
2017-Sep-20 15:01N 50°49' W 001°06'0 0.0
2017-Sep-20 14:01N 50°49' W 001°06'0 0.0
2017-Sep-20 13:30N 50°49' W 001°06'0 0.0
2017-Sep-20 13:00N 50°49' W 001°06'0 0.0
2017-Sep-20 12:28N 50°49' W 001°06'0 0.0
2017-Sep-20 12:01N 50°49' W 001°06'0 0.0
2017-Sep-20 11:30N 50°49' W 001°06'0 0.0
2017-Sep-20 10:58N 50°49' W 001°06'0 0.0
2017-Sep-20 10:28N 50°49' W 001°06'0 0.0
2017-Sep-20 10:00N 50°49' W 001°06'0 0.0
2017-Sep-20 09:30N 50°49' W 001°06'0 0.0
2017-Sep-20 09:00N 50°49' W 001°06'0 0.0
2017-Sep-20 08:31N 50°49' W 001°06'0 0.0
2017-Sep-20 08:01N 50°49' W 001°06'0 0.0
2017-Sep-20 07:30N 50°49' W 001°06'0 0.0
2017-Sep-20 07:00N 50°49' W 001°06'0 0.1
2017-Sep-20 06:30N 50°49' W 001°06'4 7.1
2017-Sep-20 06:01N 50°45' W 001°05'713.2
2017-Sep-20 05:31N 50°40' W 000°59'815.3
2017-Sep-20 05:00N 50°33' W 001°05'714.6
2017-Sep-20 04:30N 50°27' W 001°12'714.4
2017-Sep-20 04:00N 50°22' W 001°19'714.8
2017-Sep-20 03:30N 50°16' W 001°26'713.3
2017-Sep-20 03:01N 50°11' W 001°33'713.7
2017-Sep-20 02:31N 50°06' W 001°40'713.3
2017-Sep-20 02:00N 50°01' W 001°47'612.1
2017-Sep-20 01:30N 49°55' W 001°50'612.8
2017-Sep-20 01:00N 49°50' W 001°56'24 1.0
2017-Sep-19 01:42N 49°29' W 002°11'313.7
2017-Sep-19 01:28N 49°31' W 002°09'1615.3
2017-Sep-19 00:25N 49°46' W 002°00'615.7
2017-Sep-19 00:00N 49°51' W 001°54'918.4
2017-Sep-18 23:31N 49°59' W 001°46'917.8
2017-Sep-18 23:00N 50°07' W 001°39'816.9
2017-Sep-18 22:31N 50°14' W 001°32'815.5
2017-Sep-18 21:58N 50°21' W 001°24'715.1
2017-Sep-18 21:29N 50°27' W 001°18'714.5
2017-Sep-18 21:00N 50°32' W 001°12'713.8
2017-Sep-18 20:30N 50°38' W 001°06'611.7
2017-Sep-18 20:00N 50°44' W 001°03'510.6
2017-Sep-18 19:31N 50°48' W 001°07'1 1.5
2017-Sep-18 18:57N 50°49' W 001°06'0 0.0
2017-Sep-18 18:27N 50°49' W 001°06'0 0.0
2017-Sep-18 17:57N 50°49' W 001°06'0 0.0
2017-Sep-18 17:30N 50°49' W 001°06'2 3.3
2017-Sep-18 17:00N 50°47' W 001°06'714.2
2017-Sep-18 16:31N 50°42' W 000°58'1019.0
2017-Sep-18 16:00N 50°34' W 001°06'1619.9
2017-Sep-18 15:12N 50°20' W 001°19'419.4
2017-Sep-18 15:00N 50°17' W 001°22'918.3
2017-Sep-18 14:30N 50°11' W 001°32'918.0
2017-Sep-18 14:01N 50°03' W 001°41'917.5
2017-Sep-18 13:30N 49°57' W 001°49'917.3
2017-Sep-18 13:01N 49°50' W 001°57'20 1.7
2017-Sep-18 01:04N 49°31' W 002°10'114.3
2017-Sep-18 00:59N 49°32' W 002°10'1515.6
2017-Sep-18 00:00N 49°47' W 002°01'917.3
2017-Sep-17 23:30N 49°54' W 001°56'917.9
2017-Sep-17 23:00N 50°02' W 001°49'917.2
2017-Sep-17 22:30N 50°09' W 001°42'917.4
2017-Sep-17 22:00N 50°16' W 001°33'1217.4
2017-Sep-17 21:19N 50°25' W 001°20'516.4
2017-Sep-17 21:00N 50°29' W 001°15'715.1
2017-Sep-17 20:30N 50°35' W 001°09'714.3
2017-Sep-17 20:00N 50°41' W 001°02'612.7
2017-Sep-17 19:30N 50°47' W 001°06'2 3.6
2017-Sep-17 19:00N 50°49' W 001°06'0 0.0
2017-Sep-17 18:30N 50°49' W 001°06'0 0.0
2017-Sep-17 18:00N 50°49' W 001°06'0 0.0
2017-Sep-17 17:30N 50°49' W 001°06'0 0.2
2017-Sep-17 17:00N 50°49' W 001°06'4 7.9
2017-Sep-17 16:31N 50°45' W 001°05'611.5
2017-Sep-17 16:00N 50°39' W 001°05'1120.6
2017-Sep-17 15:28N 50°30' W 001°15'1020.5
2017-Sep-17 15:00N 50°22' W 001°23'1020.0
2017-Sep-17 14:31N 50°14' W 001°31'1019.2
2017-Sep-17 14:01N 50°06' W 001°41'918.8
2017-Sep-17 13:30N 49°58' W 001°48'918.5
2017-Sep-17 13:01N 49°50' W 001°56'41 2.6
2017-Sep-16 21:13N 50°24' W 001°20'417.5
2017-Sep-16 21:00N 50°27' W 001°17'917.7
2017-Sep-16 20:30N 50°35' W 001°09'815.9
2017-Sep-16 20:01N 50°41' W 001°02'612.7
2017-Sep-16 19:30N 50°47' W 001°06'2 3.4
2017-Sep-16 18:58N 50°49' W 001°06'0 0.0
2017-Sep-16 18:28N 50°49' W 001°06'0 0.0
2017-Sep-16 17:59N 50°49' W 001°06'0 0.0
2017-Sep-16 17:29N 50°49' W 001°06'0 0.1
2017-Sep-16 17:00N 50°49' W 001°06'4 7.9
2017-Sep-16 16:30N 50°45' W 001°05'612.4
2017-Sep-16 16:00N 50°39' W 001°03'1019.7
2017-Sep-16 15:29N 50°31' W 001°14'43 2.7
2017-Sep-15 23:28N 49°54' W 001°50'817.7
2017-Sep-15 23:01N 50°01' W 001°42'917.6
2017-Sep-15 22:30N 50°09' W 001°37'2117.8
2017-Sep-15 21:20N 50°26' W 001°19'617.9
2017-Sep-15 21:01N 50°31' W 001°13'917.9
2017-Sep-15 20:30N 50°38' W 001°06'612.4
2017-Sep-15 20:00N 50°44' W 001°05'4 8.8
2017-Sep-15 19:30N 50°49' W 001°06'0 0.3
2017-Sep-15 19:00N 50°49' W 001°06'0 0.0
2017-Sep-15 18:30N 50°49' W 001°06'0 0.0
2017-Sep-15 18:00N 50°49' W 001°06'0 0.0
2017-Sep-15 17:30N 50°49' W 001°06'0 0.1
2017-Sep-15 17:01N 50°49' W 001°06'4 8.0
2017-Sep-15 16:30N 50°45' W 001°05'611.4
2017-Sep-15 16:00N 50°39' W 001°05'2218.1
2017-Sep-15 14:47N 50°20' W 001°23'620.6
2017-Sep-15 14:31N 50°15' W 001°28'1121.1
2017-Sep-15 14:00N 50°08' W 001°39'1020.8
2017-Sep-15 13:30N 49°60' W 001°49'1020.3
2017-Sep-15 13:00N 49°51' W 001°56'22 2.0
2017-Sep-15 01:43N 49°31' W 002°12'1713.1
2017-Sep-15 00:25N 49°46' W 001°59'614.1
2017-Sep-15 00:00N 49°50' W 001°53'815.4
2017-Sep-14 23:30N 49°56' W 001°45'815.9
2017-Sep-14 23:00N 50°03' W 001°40'816.3
2017-Sep-14 22:31N 50°11' W 001°35'1916.8
2017-Sep-14 21:21N 50°27' W 001°18'617.2
2017-Sep-14 21:01N 50°32' W 001°13'917.5
2017-Sep-14 20:31N 50°39' W 001°05'611.8
2017-Sep-14 20:01N 50°45' W 001°05'4 8.3
2017-Sep-14 19:30N 50°49' W 001°06'0 0.4
2017-Sep-14 18:59N 50°49' W 001°06'0 0.0
2017-Sep-14 18:30N 50°49' W 001°06'0 0.0
2017-Sep-14 17:59N 50°49' W 001°06'0 0.0
2017-Sep-14 17:29N 50°49' W 001°06'0 1.0
2017-Sep-14 17:00N 50°49' W 001°06'5 9.5
2017-Sep-14 16:30N 50°44' W 001°04'510.8
2017-Sep-14 16:01N 50°39' W 001°05'1420.2
2017-Sep-14 15:19N 50°28' W 001°19'618.8
2017-Sep-14 15:01N 50°23' W 001°23'918.4
2017-Sep-14 14:30N 50°15' W 001°31'918.5
2017-Sep-14 14:00N 50°07' W 001°39'918.8
2017-Sep-14 13:31N 49°60' W 001°48'918.8
2017-Sep-14 13:01N 49°52' W 001°55'26 2.4
2017-Sep-14 02:12N 49°29' W 002°13'416.2
2017-Sep-14 01:58N 49°32' W 002°11'1414.5
2017-Sep-14 01:00N 49°45' W 002°02'713.4
2017-Sep-14 00:30N 49°50' W 001°55'713.9
2017-Sep-14 00:01N 49°56' W 001°49'714.0
2017-Sep-13 23:30N 50°02' W 001°44'714.3
2017-Sep-13 23:01N 50°09' W 001°41'714.3
2017-Sep-13 22:30N 50°15' W 001°36'2014.7
2017-Sep-13 21:10N 50°32' W 001°20'214.8
2017-Sep-13 21:00N 50°33' W 001°16'714.6
2017-Sep-13 20:30N 50°37' W 001°07'713.1
2017-Sep-13 20:00N 50°43' W 001°03'611.2
2017-Sep-13 19:30N 50°49' W 001°07'1 1.2
2017-Sep-13 19:00N 50°49' W 001°06'0 0.0
2017-Sep-13 18:30N 50°49' W 001°06'0 0.0
2017-Sep-13 18:00N 50°49' W 001°06'0 0.0
2017-Sep-13 17:30N 50°49' W 001°06'0 0.0
2017-Sep-13 17:00N 50°49' W 001°06'0 0.0
2017-Sep-13 16:30N 50°49' W 001°06'0 0.0
2017-Sep-13 16:00N 50°49' W 001°06'0 0.0
2017-Sep-13 15:30N 50°49' W 001°06'0 0.0
2017-Sep-13 15:00N 50°49' W 001°06'0 0.0
2017-Sep-13 14:30N 50°49' W 001°06'0 0.0
2017-Sep-13 14:00N 50°49' W 001°06'0 0.0
2017-Sep-13 13:30N 50°49' W 001°06'0 0.0
2017-Sep-13 13:00N 50°49' W 001°06'0 0.0
2017-Sep-13 12:30N 50°49' W 001°06'0 0.0
2017-Sep-13 12:01N 50°49' W 001°06'0 0.0
2017-Sep-13 11:31N 50°49' W 001°06'0 0.0
2017-Sep-13 11:00N 50°49' W 001°06'0 0.0
2017-Sep-13 10:30N 50°49' W 001°06'0 0.0
2017-Sep-13 10:00N 50°49' W 001°06'0 0.0
2017-Sep-13 09:30N 50°49' W 001°06'0 0.0
2017-Sep-13 09:00N 50°49' W 001°06'0 0.0
2017-Sep-13 08:30N 50°49' W 001°06'0 0.0
2017-Sep-13 08:00N 50°49' W 001°06'0 0.0
2017-Sep-13 07:31N 50°49' W 001°06'0 0.0
2017-Sep-13 07:00N 50°49' W 001°06'0 0.4
2017-Sep-13 06:30N 50°49' W 001°06'4 8.8
2017-Sep-13 06:00N 50°44' W 001°04'611.4
2017-Sep-13 05:30N 50°39' W 001°05'713.2
2017-Sep-13 05:00N 50°34' W 001°12'1012.8
2017-Sep-13 04:16N 50°26' W 001°21'413.5
2017-Sep-13 03:59N 50°23' W 001°24'613.4
2017-Sep-13 03:31N 50°17' W 001°29'713.9
2017-Sep-13 03:00N 50°11' W 001°34'714.3
2017-Sep-13 02:30N 50°05' W 001°40'815.5
2017-Sep-13 02:00N 49°59' W 001°47'816.4
2017-Sep-13 01:31N 49°52' W 001°54'714.0
2017-Sep-13 01:01N 49°46' W 002°01'913.2
2017-Sep-13 00:18N 49°38' W 002°06'412.3
2017-Sep-13 00:00N 49°34' W 002°07'4 0.2
2017-Sep-12 01:50N 49°31' W 002°12'714.9
2017-Sep-12 01:22N 49°37' W 002°07'1014.3
2017-Sep-12 00:40N 49°46' W 002°01'214.2
2017-Sep-12 00:30N 49°48' W 001°60'714.5
2017-Sep-12 00:00N 49°54' W 001°54'714.0
2017-Sep-11 23:30N 50°00' W 001°48'714.4
2017-Sep-11 23:00N 50°06' W 001°42'713.7
2017-Sep-11 22:30N 50°10' W 001°33'  
Track history (hours):
 
Tides and Currents Weather Stations Pressure Air Temp Water Temp Dewpoint Dewpoint Depression Visibility Wind Speed Wind Dir Waves Ship Positions

Bretagne

Operator: Brittany Ferries

Last reported at 2017-Sep-21 22:16 UTC. Time now 2017-Sep-23 02:21 UTC.
Position N 50°17' W 001°28'.

Length 151 m; beam 27 m.

Type: Ship. MMSI: 227286000.

Date/timePositionNaut miles runAvg speedWind from/ knotsBaromVisibWave heightAir tempDewpointWater temp
2017-Sep-21 22:16N 50°17' W 001°28'514.5
2017-Sep-21 21:55N 50°21' W 001°23'614.3
2017-Sep-21 21:30N 50°26' W 001°19'713.8
2017-Sep-21 21:00N 50°32' W 001°13'713.2
2017-Sep-21 20:31N 50°37' W 001°07'612.2
2017-Sep-21 20:00N 50°43' W 001°03'612.7
2017-Sep-21 19:30N 50°48' W 001°07'1 1.6
2017-Sep-21 19:00N 50°49' W 001°06'0 0.0
2017-Sep-21 18:30N 50°49' W 001°06'0 0.0
2017-Sep-21 18:00N 50°49' W 001°06'0 0.0
2017-Sep-21 17:31N 50°49' W 001°06'1 1.4
2017-Sep-21 17:00N 50°48' W 001°06'4 9.2
2017-Sep-21 16:30N 50°44' W 001°03'612.6
2017-Sep-21 16:00N 50°38' W 001°00'915.6
2017-Sep-21 15:26N 50°31' W 001°09'1016.5
2017-Sep-21 14:49N 50°23' W 001°19'10812.3
2017-Sep-21 06:00N 48°39' W 002°02'814.5
2017-Sep-21 05:29N 48°45' W 002°08'1120.5
2017-Sep-21 04:56N 48°53' W 002°20'717.3
2017-Sep-21 04:30N 49°01' W 002°22'713.9
2017-Sep-21 04:00N 49°08' W 002°23'813.2
2017-Sep-21 03:22N 49°16' W 002°22'411.9
2017-Sep-21 02:59N 49°20' W 002°19'2512.6
2017-Sep-21 01:00N 49°43' W 002°03'612.6
2017-Sep-21 00:30N 49°49' W 002°00'611.5
2017-Sep-21 00:00N 49°54' W 001°57'714.7
2017-Sep-20 23:30N 50°01' W 001°52'714.4
2017-Sep-20 23:00N 50°06' W 001°45'714.5
2017-Sep-20 22:30N 50°12' W 001°38'1514.6
2017-Sep-20 21:29N 50°24' W 001°25'713.6
2017-Sep-20 21:00N 50°29' W 001°18'612.5
2017-Sep-20 20:31N 50°33' W 001°11'612.6
2017-Sep-20 20:00N 50°39' W 001°05'611.2
2017-Sep-20 19:30N 50°44' W 001°04'5 8.9
2017-Sep-20 19:00N 50°49' W 001°06'0 0.1
2017-Sep-20 18:30N 50°49' W 001°06'0 0.0
2017-Sep-20 18:00N 50°49' W 001°06'0 0.0
2017-Sep-20 17:30N 50°49' W 001°06'0 0.0
2017-Sep-20 17:00N 50°49' W 001°06'0 0.0
2017-Sep-20 16:30N 50°49' W 001°06'0 0.0
2017-Sep-20 16:00N 50°49' W 001°06'0 0.0
2017-Sep-20 15:30N 50°49' W 001°06'0 0.0
2017-Sep-20 15:01N 50°49' W 001°06'0 0.0
2017-Sep-20 14:01N 50°49' W 001°06'0 0.0
2017-Sep-20 13:30N 50°49' W 001°06'0 0.0
2017-Sep-20 13:00N 50°49' W 001°06'0 0.0
2017-Sep-20 12:28N 50°49' W 001°06'0 0.0
2017-Sep-20 12:01N 50°49' W 001°06'0 0.0
2017-Sep-20 11:30N 50°49' W 001°06'0 0.0
2017-Sep-20 10:58N 50°49' W 001°06'0 0.0
2017-Sep-20 10:28N 50°49' W 001°06'0 0.0
2017-Sep-20 10:00N 50°49' W 001°06'0 0.0
2017-Sep-20 09:30N 50°49' W 001°06'0 0.0
2017-Sep-20 09:00N 50°49' W 001°06'0 0.0
2017-Sep-20 08:31N 50°49' W 001°06'0 0.0
2017-Sep-20 08:01N 50°49' W 001°06'0 0.0
2017-Sep-20 07:30N 50°49' W 001°06'0 0.0
2017-Sep-20 07:00N 50°49' W 001°06'0 0.1
2017-Sep-20 06:30N 50°49' W 001°06'4 7.1
2017-Sep-20 06:01N 50°45' W 001°05'713.2
2017-Sep-20 05:31N 50°40' W 000°59'815.3
2017-Sep-20 05:00N 50°33' W 001°05'714.6
2017-Sep-20 04:30N 50°27' W 001°12'714.4
2017-Sep-20 04:00N 50°22' W 001°19'714.8
2017-Sep-20 03:30N 50°16' W 001°26'713.3
2017-Sep-20 03:01N 50°11' W 001°33'713.7
2017-Sep-20 02:31N 50°06' W 001°40'713.3
2017-Sep-20 02:00N 50°01' W 001°47'612.1
2017-Sep-20 01:30N 49°55' W 001°50'612.8
2017-Sep-20 01:00N 49°50' W 001°56'24 1.0
2017-Sep-19 01:42N 49°29' W 002°11'313.7
2017-Sep-19 01:28N 49°31' W 002°09'1615.3
2017-Sep-19 00:25N 49°46' W 002°00'615.7
2017-Sep-19 00:00N 49°51' W 001°54'918.4
2017-Sep-18 23:31N 49°59' W 001°46'917.8
2017-Sep-18 23:00N 50°07' W 001°39'816.9
2017-Sep-18 22:31N 50°14' W 001°32'815.5
2017-Sep-18 21:58N 50°21' W 001°24'715.1
2017-Sep-18 21:29N 50°27' W 001°18'714.5
2017-Sep-18 21:00N 50°32' W 001°12'713.8
2017-Sep-18 20:30N 50°38' W 001°06'611.7
2017-Sep-18 20:00N 50°44' W 001°03'510.6
2017-Sep-18 19:31N 50°48' W 001°07'1 1.5
2017-Sep-18 18:57N 50°49' W 001°06'0 0.0
2017-Sep-18 18:27N 50°49' W 001°06'0 0.0
2017-Sep-18 17:57N 50°49' W 001°06'0 0.0
2017-Sep-18 17:30N 50°49' W 001°06'2 3.3
2017-Sep-18 17:00N 50°47' W 001°06'714.2
2017-Sep-18 16:31N 50°42' W 000°58'1019.0
2017-Sep-18 16:00N 50°34' W 001°06'1619.9
2017-Sep-18 15:12N 50°20' W 001°19'419.4
2017-Sep-18 15:00N 50°17' W 001°22'918.3
2017-Sep-18 14:30N 50°11' W 001°32'918.0
2017-Sep-18 14:01N 50°03' W 001°41'917.5
2017-Sep-18 13:30N 49°57' W 001°49'917.3
2017-Sep-18 13:01N 49°50' W 001°57'20 1.7
2017-Sep-18 01:04N 49°31' W 002°10'114.3
2017-Sep-18 00:59N 49°32' W 002°10'1515.6
2017-Sep-18 00:00N 49°47' W 002°01'917.3
2017-Sep-17 23:30N 49°54' W 001°56'917.9
2017-Sep-17 23:00N 50°02' W 001°49'917.2
2017-Sep-17 22:30N 50°09' W 001°42'917.4
2017-Sep-17 22:00N 50°16' W 001°33'1217.4
2017-Sep-17 21:19N 50°25' W 001°20'516.4
2017-Sep-17 21:00N 50°29' W 001°15'715.1
2017-Sep-17 20:30N 50°35' W 001°09'714.3
2017-Sep-17 20:00N 50°41' W 001°02'612.7
2017-Sep-17 19:30N 50°47' W 001°06'2 3.6
2017-Sep-17 19:00N 50°49' W 001°06'0 0.0
2017-Sep-17 18:30N 50°49' W 001°06'0 0.0
2017-Sep-17 18:00N 50°49' W 001°06'0 0.0
2017-Sep-17 17:30N 50°49' W 001°06'0 0.2
2017-Sep-17 17:00N 50°49' W 001°06'4 7.9
2017-Sep-17 16:31N 50°45' W 001°05'611.5
2017-Sep-17 16:00N 50°39' W 001°05'1120.6
2017-Sep-17 15:28N 50°30' W 001°15'1020.5
2017-Sep-17 15:00N 50°22' W 001°23'1020.0
2017-Sep-17 14:31N 50°14' W 001°31'1019.2
2017-Sep-17 14:01N 50°06' W 001°41'918.8
2017-Sep-17 13:30N 49°58' W 001°48'918.5
2017-Sep-17 13:01N 49°50' W 001°56'41 2.6
2017-Sep-16 21:13N 50°24' W 001°20'417.5
2017-Sep-16 21:00N 50°27' W 001°17'917.7
2017-Sep-16 20:30N 50°35' W 001°09'815.9
2017-Sep-16 20:01N 50°41' W 001°02'612.7
2017-Sep-16 19:30N 50°47' W 001°06'2 3.4
2017-Sep-16 18:58N 50°49' W 001°06'0 0.0
2017-Sep-16 18:28N 50°49' W 001°06'0 0.0
2017-Sep-16 17:59N 50°49' W 001°06'0 0.0
2017-Sep-16 17:29N 50°49' W 001°06'0 0.1
2017-Sep-16 17:00N 50°49' W 001°06'4 7.9
2017-Sep-16 16:30N 50°45' W 001°05'612.4
2017-Sep-16 16:00N 50°39' W 001°03'1019.7
2017-Sep-16 15:29N 50°31' W 001°14'43 2.7
2017-Sep-15 23:28N 49°54' W 001°50'817.7
2017-Sep-15 23:01N 50°01' W 001°42'917.6
2017-Sep-15 22:30N 50°09' W 001°37'2117.8
2017-Sep-15 21:20N 50°26' W 001°19'617.9
2017-Sep-15 21:01N 50°31' W 001°13'917.9
2017-Sep-15 20:30N 50°38' W 001°06'612.4
2017-Sep-15 20:00N 50°44' W 001°05'4 8.8
2017-Sep-15 19:30N 50°49' W 001°06'0 0.3
2017-Sep-15 19:00N 50°49' W 001°06'0 0.0
2017-Sep-15 18:30N 50°49' W 001°06'0 0.0
2017-Sep-15 18:00N 50°49' W 001°06'0 0.0
2017-Sep-15 17:30N 50°49' W 001°06'0 0.1
2017-Sep-15 17:01N 50°49' W 001°06'4 8.0
2017-Sep-15 16:30N 50°45' W 001°05'611.4
2017-Sep-15 16:00N 50°39' W 001°05'2218.1
2017-Sep-15 14:47N 50°20' W 001°23'620.6
2017-Sep-15 14:31N 50°15' W 001°28'1121.1
2017-Sep-15 14:00N 50°08' W 001°39'1020.8
2017-Sep-15 13:30N 49°60' W 001°49'1020.3
2017-Sep-15 13:00N 49°51' W 001°56'22 2.0
2017-Sep-15 01:43N 49°31' W 002°12'1713.1
2017-Sep-15 00:25N 49°46' W 001°59'614.1
2017-Sep-15 00:00N 49°50' W 001°53'815.4
2017-Sep-14 23:30N 49°56' W 001°45'815.9
2017-Sep-14 23:00N 50°03' W 001°40'816.3
2017-Sep-14 22:31N 50°11' W 001°35'1916.8
2017-Sep-14 21:21N 50°27' W 001°18'617.2
2017-Sep-14 21:01N 50°32' W 001°13'917.5
2017-Sep-14 20:31N 50°39' W 001°05'611.8
2017-Sep-14 20:01N 50°45' W 001°05'4 8.3
2017-Sep-14 19:30N 50°49' W 001°06'0 0.4
2017-Sep-14 18:59N 50°49' W 001°06'0 0.0
2017-Sep-14 18:30N 50°49' W 001°06'0 0.0
2017-Sep-14 17:59N 50°49' W 001°06'0 0.0
2017-Sep-14 17:29N 50°49' W 001°06'0 1.0
2017-Sep-14 17:00N 50°49' W 001°06'5 9.5
2017-Sep-14 16:30N 50°44' W 001°04'510.8
2017-Sep-14 16:01N 50°39' W 001°05'1420.2
2017-Sep-14 15:19N 50°28' W 001°19'618.8
2017-Sep-14 15:01N 50°23' W 001°23'918.4
2017-Sep-14 14:30N 50°15' W 001°31'918.5
2017-Sep-14 14:00N 50°07' W 001°39'918.8
2017-Sep-14 13:31N 49°60' W 001°48'918.8
2017-Sep-14 13:01N 49°52' W 001°55'26 2.4
2017-Sep-14 02:12N 49°29' W 002°13'416.2
2017-Sep-14 01:58N 49°32' W 002°11'1414.5
2017-Sep-14 01:00N 49°45' W 002°02'713.4
2017-Sep-14 00:30N 49°50' W 001°55'713.9
2017-Sep-14 00:01N 49°56' W 001°49'714.0
2017-Sep-13 23:30N 50°02' W 001°44'714.3
2017-Sep-13 23:01N 50°09' W 001°41'714.3
2017-Sep-13 22:30N 50°15' W 001°36'2014.7
2017-Sep-13 21:10N 50°32' W 001°20'214.8
2017-Sep-13 21:00N 50°33' W 001°16'714.6
2017-Sep-13 20:30N 50°37' W 001°07'713.1
2017-Sep-13 20:00N 50°43' W 001°03'611.2
2017-Sep-13 19:30N 50°49' W 001°07'1 1.2
2017-Sep-13 19:00N 50°49' W 001°06'0 0.0
2017-Sep-13 18:30N 50°49' W 001°06'0 0.0
2017-Sep-13 18:00N 50°49' W 001°06'0 0.0
2017-Sep-13 17:30N 50°49' W 001°06'0 0.0
2017-Sep-13 17:00N 50°49' W 001°06'0 0.0
2017-Sep-13 16:30N 50°49' W 001°06'0 0.0
2017-Sep-13 16:00N 50°49' W 001°06'0 0.0
2017-Sep-13 15:30N 50°49' W 001°06'0 0.0
2017-Sep-13 15:00N 50°49' W 001°06'0 0.0
2017-Sep-13 14:30N 50°49' W 001°06'0 0.0
2017-Sep-13 14:00N 50°49' W 001°06'0 0.0
2017-Sep-13 13:30N 50°49' W 001°06'0 0.0
2017-Sep-13 13:00N 50°49' W 001°06'0 0.0
2017-Sep-13 12:30N 50°49' W 001°06'0 0.0
2017-Sep-13 12:01N 50°49' W 001°06'0 0.0
2017-Sep-13 11:31N 50°49' W 001°06'0 0.0
2017-Sep-13 11:00N 50°49' W 001°06'0 0.0
2017-Sep-13 10:30N 50°49' W 001°06'0 0.0
2017-Sep-13 10:00N 50°49' W 001°06'0 0.0
2017-Sep-13 09:30N 50°49' W 001°06'0 0.0
2017-Sep-13 09:00N 50°49' W 001°06'0 0.0
2017-Sep-13 08:30N 50°49' W 001°06'0 0.0
2017-Sep-13 08:00N 50°49' W 001°06'0 0.0
2017-Sep-13 07:31N 50°49' W 001°06'0 0.0
2017-Sep-13 07:00N 50°49' W 001°06'0 0.4
2017-Sep-13 06:30N 50°49' W 001°06'4 8.8
2017-Sep-13 06:00N 50°44' W 001°04'611.4
2017-Sep-13 05:30N 50°39' W 001°05'713.2
2017-Sep-13 05:00N 50°34' W 001°12'1012.8
2017-Sep-13 04:16N 50°26' W 001°21'413.5
2017-Sep-13 03:59N 50°23' W 001°24'613.4
2017-Sep-13 03:31N 50°17' W 001°29'713.9
2017-Sep-13 03:00N 50°11' W 001°34'714.3
2017-Sep-13 02:30N 50°05' W 001°40'815.5
2017-Sep-13 02:00N 49°59' W 001°47'816.4
2017-Sep-13 01:31N 49°52' W 001°54'714.0
2017-Sep-13 01:01N 49°46' W 002°01'913.2
2017-Sep-13 00:18N 49°38' W 002°06'412.3
2017-Sep-13 00:00N 49°34' W 002°07'4 0.2
2017-Sep-12 01:50N 49°31' W 002°12'714.9
2017-Sep-12 01:22N 49°37' W 002°07'1014.3
2017-Sep-12 00:40N 49°46' W 002°01'214.2
2017-Sep-12 00:30N 49°48' W 001°60'714.5
2017-Sep-12 00:00N 49°54' W 001°54'714.0
2017-Sep-11 23:30N 50°00' W 001°48'714.4
2017-Sep-11 23:00N 50°06' W 001°42'713.7
2017-Sep-11 22:30N 50°10' W 001°33'  

Dump ship's entire track history